Time;durP1;ratioP1;P1;durP2;ratioP2;P2;SDS_P1;SDS_P2;PMS_P1;PMS_P2;Temp;Humidity;BMP_temperature;BMP_pressure;BME280_temperature;BME280_humidity;BME280_pressure;Samples;Min_cycle;Max_cycle;Signal;HPM_P1;HPM_P2
2022/03/11 00:00:26;;;;;;;16.27;12.10;;;1.30;82.60;;;;;;5030205;28;20494;-73
2022/03/11 00:02:53;;;;;;;19.73;12.30;;;1.30;82.90;;;;;;5030442;28;20455;-73
2022/03/11 00:05:20;;;;;;;15.43;10.83;;;1.20;82.00;;;;;;5030420;28;21001;-73
2022/03/11 00:07:47;;;;;;;21.53;11.60;;;1.20;81.20;;;;;;5030514;28;20455;-72
2022/03/11 00:10:14;;;;;;;18.90;10.80;;;1.20;81.30;;;;;;5030970;28;20458;-71
2022/03/11 00:12:43;;;;;;;16.80;10.90;;;1.00;81.80;;;;;;5030755;28;20451;-71
2022/03/11 00:15:10;;;;;;;17.33;12.40;;;0.90;83.00;;;;;;5030636;28;20512;-73
2022/03/11 00:17:37;;;;;;;24.10;11.40;;;0.80;83.90;;;;;;5030338;28;20450;-71
2022/03/11 00:20:06;;;;;;;17.90;10.90;;;0.80;83.80;;;;;;5029974;28;20966;-73
2022/03/11 00:22:35;;;;;;;13.73;9.97;;;0.90;82.20;;;;;;5030364;28;20541;-73
2022/03/11 00:25:02;;;;;;;15.37;8.97;;;0.80;81.60;;;;;;5029208;28;21041;-70
2022/03/11 00:27:29;;;;;;;12.60;8.70;;;0.80;80.60;;;;;;5030600;28;20462;-72
2022/03/11 00:29:58;;;;;;;14.93;9.87;;;0.80;78.30;;;;;;5030627;28;20446;-71
2022/03/11 00:32:25;;;;;;;12.27;8.80;;;0.70;79.30;;;;;;5030395;28;20455;-73
2022/03/11 00:34:52;;;;;;;16.40;9.00;;;0.80;77.60;;;;;;5030402;28;20482;-72
2022/03/11 00:37:19;;;;;;;16.03;9.67;;;0.70;76.10;;;;;;5030133;28;20451;-73
2022/03/11 00:39:46;;;;;;;15.70;8.00;;;0.70;76.70;;;;;;5030036;28;20947;-72
2022/03/11 00:42:14;;;;;;;10.30;7.23;;;0.60;76.60;;;;;;5030368;28;20461;-73
2022/03/11 00:44:41;;;;;;;15.70;9.23;;;0.50;76.40;;;;;;5029502;28;20498;-73
2022/03/11 00:47:09;;;;;;;11.83;9.23;;;0.50;79.20;;;;;;5029540;28;20450;-72
2022/03/11 00:49:37;;;;;;;14.23;9.50;;;0.50;78.80;;;;;;5029995;28;20753;-73
2022/03/11 00:52:05;;;;;;;12.67;8.57;;;0.40;80.00;;;;;;5029796;28;20439;-73
2022/03/11 00:54:32;;;;;;;14.40;9.43;;;0.40;78.70;;;;;;5029607;28;20474;-72
2022/03/11 00:56:59;;;;;;;16.40;9.17;;;0.60;77.30;;;;;;5029919;28;20562;-74
2022/03/11 00:59:26;;;;;;;13.47;9.00;;;0.60;78.70;;;;;;5029768;28;20454;-71
2022/03/11 01:01:53;;;;;;;11.80;7.33;;;0.50;78.80;;;;;;5029601;28;20459;-74
2022/03/11 01:04:22;;;;;;;11.43;8.63;;;0.40;77.70;;;;;;5029664;28;20487;-74
2022/03/11 01:06:49;;;;;;;14.77;8.43;;;0.40;78.90;;;;;;5029074;28;20462;-71
2022/03/11 01:09:16;;;;;;;18.20;10.97;;;0.50;78.50;;;;;;5029593;28;20466;-74
2022/03/11 01:11:43;;;;;;;17.10;10.70;;;0.30;80.20;;;;;;5029223;28;20487;-72
2022/03/11 01:14:10;;;;;;;14.70;9.30;;;0.20;81.10;;;;;;5029292;28;20486;-73
2022/03/11 01:16:38;;;;;;;14.93;9.57;;;0.20;79.70;;;;;;5029287;28;20459;-71
2022/03/11 01:19:05;;;;;;;14.60;9.97;;;0.20;80.00;;;;;;5029498;28;20998;-72
2022/03/11 01:21:33;;;;;;;18.00;10.90;;;0.10;81.20;;;;;;5029420;28;20451;-73
2022/03/11 01:24:01;;;;;;;18.97;10.97;;;0.00;82.20;;;;;;5011185;28;20510;-74
2022/03/11 01:26:28;;;;;;;14.13;9.40;;;-0.10;83.90;;;;;;5029633;28;20454;-74
2022/03/11 01:28:56;;;;;;;13.63;8.13;;;0.00;82.80;;;;;;5029145;28;20462;-72
2022/03/11 01:31:23;;;;;;;14.47;9.77;;;0.10;82.30;;;;;;5029264;28;20466;-73
2022/03/11 01:33:50;;;;;;;14.23;9.67;;;0.00;82.50;;;;;;5029169;28;20475;-74
2022/03/11 01:36:17;;;;;;;13.80;9.10;;;-0.10;84.80;;;;;;5029387;28;20451;-75
2022/03/11 01:38:48;;;;;;;16.20;9.70;;;-0.20;85.50;;;;;;5029462;28;20459;-74
2022/03/11 01:41:15;;;;;;;16.87;10.33;;;0.00;84.90;;;;;;5028601;28;20459;-74
2022/03/11 01:43:53;;;;;;;17.23;10.33;;;0.10;85.10;;;;;;5029037;28;20466;-72
2022/03/11 01:46:21;;;;;;;21.83;10.60;;;0.10;85.60;;;;;;5029182;28;20486;-73
2022/03/11 01:48:48;;;;;;;11.97;8.87;;;0.10;86.60;;;;;;5029212;28;20477;-74
2022/03/11 01:51:16;;;;;;;14.33;9.00;;;0.20;86.50;;;;;;5029279;28;20978;-72
2022/03/11 01:53:43;;;;;;;13.20;9.10;;;0.40;85.60;;;;;;5029409;28;20545;-74
2022/03/11 01:56:12;;;;;;;11.80;8.07;;;0.30;86.80;;;;;;5029286;28;20462;-72
2022/03/11 01:58:40;;;;;;;11.87;7.60;;;0.10;86.70;;;;;;5028600;28;20451;-73
2022/03/11 02:01:07;;;;;;;11.53;7.27;;;0.00;87.10;;;;;;5029079;28;20454;-74
2022/03/11 02:03:35;;;;;;;13.37;8.80;;;0.10;85.70;;;;;;5029171;28;20826;-73
2022/03/11 02:06:02;;;;;;;11.43;7.67;;;-0.20;85.50;;;;;;5028929;28;21012;-74
2022/03/11 02:08:30;;;;;;;14.03;7.50;;;0.10;85.30;;;;;;5028646;28;20957;-74
2022/03/11 02:10:57;;;;;;;10.77;7.57;;;0.20;83.10;;;;;;5028400;28;20487;-74
2022/03/11 02:13:25;;;;;;;11.30;8.20;;;0.20;82.70;;;;;;5028657;28;20858;-74
2022/03/11 02:15:52;;;;;;;14.00;7.93;;;-0.10;84.60;;;;;;5029026;28;20458;-72
2022/03/11 02:18:20;;;;;;;12.47;8.00;;;-0.10;84.90;;;;;;5029082;28;20451;-75
2022/03/11 02:20:50;;;;;;;15.50;8.20;;;-0.30;85.30;;;;;;5028860;28;20548;-74
2022/03/11 02:23:19;;;;;;;17.10;8.17;;;-0.50;86.10;;;;;;5030379;28;20850;-72
2022/03/11 02:25:47;;;;;;;13.77;9.33;;;-0.50;87.50;;;;;;5032037;28;20530;-71
2022/03/11 02:28:15;;;;;;;12.10;7.07;;;-0.50;87.50;;;;;;5032831;28;20768;-74
2022/03/11 02:30:42;;;;;;;14.43;8.20;;;-0.50;87.50;;;;;;5032457;28;20455;-75
2022/03/11 02:33:09;;;;;;;14.77;7.10;;;-0.60;87.50;;;;;;5032657;28;20454;-73
2022/03/11 02:35:36;;;;;;;15.30;8.20;;;-0.60;87.10;;;;;;5031991;28;20474;-72
2022/03/11 02:38:03;;;;;;;10.90;7.10;;;-0.70;86.40;;;;;;5032346;28;20818;-73
2022/03/11 02:40:32;;;;;;;13.87;6.97;;;-0.60;85.60;;;;;;5032105;28;20799;-74
2022/03/11 02:43:01;;;;;;;10.13;6.20;;;-0.70;84.70;;;;;;5032654;28;20458;-75
2022/03/11 02:45:28;;;;;;;10.13;6.40;;;-0.70;82.50;;;;;;5031996;28;20494;-74
2022/03/11 02:47:55;;;;;;;12.37;7.50;;;-1.00;82.90;;;;;;5032149;28;20462;-73
2022/03/11 02:50:22;;;;;;;13.20;7.00;;;-1.20;84.60;;;;;;5031730;28;20841;-76
2022/03/11 02:52:49;;;;;;;10.30;6.70;;;-1.30;85.90;;;;;;5031744;28;20459;-74
2022/03/11 02:55:17;;;;;;;11.73;6.30;;;-1.40;86.70;;;;;;5031939;28;20565;-71
2022/03/11 02:57:44;;;;;;;13.93;6.73;;;-1.60;86.40;;;;;;5032146;28;21255;-72
2022/03/11 03:00:13;;;;;;;9.53;6.20;;;-1.90;87.80;;;;;;5031752;28;20484;-73
2022/03/11 03:02:40;;;;;;;9.90;6.17;;;-1.90;88.40;;;;;;5031192;28;20465;-74
2022/03/11 03:05:09;;;;;;;9.93;6.83;;;-1.90;89.30;;;;;;5031810;28;20501;-72
2022/03/11 03:07:36;;;;;;;11.73;6.70;;;-1.90;89.20;;;;;;5031761;28;20451;-71
2022/03/11 03:10:04;;;;;;;8.43;6.00;;;-1.90;90.30;;;;;;5031982;28;20454;-72
2022/03/11 03:12:31;;;;;;;11.97;7.27;;;-1.70;89.60;;;;;;5031963;28;20455;-74
2022/03/11 03:14:58;;;;;;;10.03;6.77;;;-1.70;89.80;;;;;;5031451;28;20482;-73
2022/03/11 03:17:28;;;;;;;9.50;6.00;;;-1.50;89.90;;;;;;5031547;28;20953;-74
2022/03/11 03:19:55;;;;;;;11.90;6.53;;;-1.40;88.40;;;;;;5031639;28;20455;-73
2022/03/11 03:22:22;;;;;;;13.70;6.13;;;-1.40;88.80;;;;;;5031644;28;20809;-73
2022/03/11 03:24:49;;;;;;;9.70;6.67;;;-1.20;87.90;;;;;;5030981;28;20514;-73
2022/03/11 03:27:17;;;;;;;10.20;6.43;;;-1.30;88.90;;;;;;5031697;28;20466;-72
2022/03/11 03:29:44;;;;;;;12.23;6.40;;;-1.40;89.80;;;;;;5031182;28;20474;-74
2022/03/11 03:32:11;;;;;;;11.93;6.90;;;-1.30;89.40;;;;;;5031384;28;20889;-73
2022/03/11 03:34:40;;;;;;;12.07;7.00;;;-1.20;88.70;;;;;;5030791;28;20474;-72
2022/03/11 03:37:09;;;;;;;12.40;7.67;;;-1.00;88.40;;;;;;5031187;28;20455;-74
2022/03/11 03:39:36;;;;;;;11.00;7.30;;;-1.00;88.40;;;;;;5030715;28;20459;-72
2022/03/11 03:42:04;;;;;;;9.63;6.70;;;-1.00;89.00;;;;;;5031204;28;20458;-74
2022/03/11 03:44:32;;;;;;;14.07;8.63;;;-1.00;90.00;;;;;;5031199;28;20467;-74
2022/03/11 03:46:59;;;;;;;10.23;7.43;;;-1.00;89.90;;;;;;5030862;28;20487;-73
2022/03/11 03:49:28;;;;;;;11.80;7.37;;;-1.00;90.10;;;;;;5031203;28;20534;-71
2022/03/11 03:51:57;;;;;;;16.60;7.40;;;-0.90;89.30;;;;;;5031394;28;20459;-74
2022/03/11 03:54:24;;;;;;;12.43;8.00;;;-0.90;89.10;;;;;;5030782;28;20514;-73
2022/03/11 03:56:51;;;;;;;13.37;8.03;;;-1.10;90.70;;;;;;5031071;28;20454;-73
2022/03/11 03:59:18;;;;;;;10.53;7.60;;;-1.20;91.70;;;;;;5030865;28;20477;-74
2022/03/11 04:01:46;;;;;;;11.17;8.63;;;-1.20;92.60;;;;;;5030952;28;20462;-73
2022/03/11 04:04:13;;;;;;;11.30;8.87;;;-1.20;93.00;;;;;;5031047;28;20525;-72
2022/03/11 04:06:42;;;;;;;13.53;8.37;;;-0.90;92.50;;;;;;5030317;28;20494;-74
2022/03/11 04:09:12;;;;;;;14.10;8.37;;;-0.90;92.10;;;;;;5030740;28;20533;-71
2022/03/11 04:11:39;;;;;;;15.90;8.93;;;-1.00;92.80;;;;;;5030612;28;21107;-71
2022/03/11 04:14:06;;;;;;;12.67;8.60;;;-1.00;93.90;;;;;;5030802;28;20467;-74
2022/03/11 04:16:34;;;;;;;17.27;9.13;;;-1.00;94.00;;;;;;5030584;28;20947;-73
2022/03/11 04:19:01;;;;;;;12.23;7.90;;;-1.00;93.90;;;;;;5030745;28;21088;-74
2022/03/11 04:21:28;;;;;;;11.20;7.70;;;-1.10;94.20;;;;;;5030302;28;20454;-74
2022/03/11 04:23:55;;;;;;;13.37;9.50;;;-1.00;93.80;;;;;;5029657;28;21014;-75
2022/03/11 04:26:24;;;;;;;16.57;9.57;;;-0.90;92.30;;;;;;5029857;28;20544;-76
2022/03/11 04:28:51;;;;;;;12.70;8.83;;;-1.00;92.20;;;;;;5029798;28;20513;-74
2022/03/11 04:31:18;;;;;;;14.20;9.30;;;-0.90;91.90;;;;;;5030340;28;20536;-74
2022/03/11 04:33:45;;;;;;;16.20;9.60;;;-1.00;92.30;;;;;;5030166;28;20470;-74
2022/03/11 04:36:12;;;;;;;18.73;9.33;;;-1.10;91.80;;;;;;5030064;28;20826;-76
2022/03/11 04:38:40;;;;;;;14.87;8.13;;;-1.10;90.90;;;;;;5030298;28;20462;-72
2022/03/11 04:41:07;;;;;;;10.60;8.70;;;-1.20;91.10;;;;;;5030115;28;20459;-75
2022/03/11 04:43:37;;;;;;;11.53;7.90;;;-1.40;92.60;;;;;;5029866;28;20474;-76
2022/03/11 04:46:04;;;;;;;13.57;9.00;;;-1.50;92.10;;;;;;5029101;28;21079;-74
2022/03/11 04:48:32;;;;;;;14.40;9.27;;;-1.50;92.20;;;;;;5030029;28;20465;-73
2022/03/11 04:50:59;;;;;;;16.23;8.10;;;-1.50;93.30;;;;;;5029544;28;20965;-73
2022/03/11 04:53:26;;;;;;;16.10;9.40;;;-1.80;93.80;;;;;;5029879;28;20942;-75
2022/03/11 04:55:53;;;;;;;12.50;8.00;;;-1.90;94.90;;;;;;5012068;28;20549;-75
2022/03/11 04:58:21;;;;;;;13.53;8.60;;;-2.00;95.00;;;;;;5029987;28;20454;-74
2022/03/11 05:00:49;;;;;;;12.10;7.67;;;-2.00;96.30;;;;;;5029142;28;20454;-75
2022/03/11 05:03:16;;;;;;;12.50;8.10;;;-1.90;96.00;;;;;;5029679;28;20568;-73
2022/03/11 05:05:43;;;;;;;14.93;8.83;;;-1.90;95.10;;;;;;5029480;28;20471;-72
2022/03/11 05:08:10;;;;;;;11.60;8.40;;;-1.90;95.20;;;;;;5029086;28;20450;-74
2022/03/11 05:10:38;;;;;;;13.07;8.73;;;-1.80;94.90;;;;;;5029876;28;20461;-75
2022/03/11 05:13:05;;;;;;;14.30;9.13;;;-1.90;97.20;;;;;;5029899;28;20457;-74
2022/03/11 05:15:32;;;;;;;17.23;7.33;;;-1.80;96.60;;;;;;5029527;28;20498;-74
2022/03/11 05:18:01;;;;;;;14.70;7.40;;;-1.60;95.90;;;;;;5029646;28;20819;-74
2022/03/11 05:20:28;;;;;;;14.23;7.73;;;-1.40;95.10;;;;;;5029187;28;20817;-73
2022/03/11 05:22:55;;;;;;;11.40;8.00;;;-1.50;95.30;;;;;;5029328;28;20446;-72
2022/03/11 05:25:22;;;;;;;10.70;8.03;;;-1.30;94.40;;;;;;5028483;28;21065;-73
2022/03/11 05:27:49;;;;;;;12.10;7.70;;;-1.20;93.70;;;;;;5029542;28;20454;-77
2022/03/11 05:30:16;;;;;;;15.43;8.17;;;-1.00;92.80;;;;;;5029659;28;20455;-74
2022/03/11 05:32:45;;;;;;;12.97;8.90;;;-1.00;93.00;;;;;;5029202;28;20455;-70
2022/03/11 05:35:15;;;;;;;13.40;7.60;;;-0.80;91.80;;;;;;5029433;28;20471;-72
2022/03/11 05:37:43;;;;;;;12.33;8.10;;;-0.80;91.90;;;;;;5029305;28;20446;-71
2022/03/11 05:40:10;;;;;;;13.57;8.50;;;-0.90;92.40;;;;;;5029321;28;20461;-69
2022/03/11 05:42:38;;;;;;;15.07;8.50;;;-0.90;93.10;;;;;;5029541;28;20816;-76
2022/03/11 05:45:07;;;;;;;12.00;8.27;;;-0.80;92.60;;;;;;5028764;28;20467;-69
2022/03/11 05:47:34;;;;;;;12.57;9.13;;;-0.70;91.80;;;;;;5029287;28;20505;-78
2022/03/11 05:50:02;;;;;;;14.30;8.50;;;-0.50;91.10;;;;;;5030931;28;20454;-70
2022/03/11 05:52:30;;;;;;;11.10;8.80;;;-0.60;92.10;;;;;;5045532;28;20453;-71
2022/03/11 05:54:57;;;;;;;21.03;9.97;;;-0.60;90.60;;;;;;5049210;28;20989;-72
2022/03/11 05:57:24;;;;;;;14.67;9.57;;;-0.60;89.60;;;;;;5050309;28;21017;-75
2022/03/11 05:59:51;;;;;;;14.53;9.37;;;-0.70;90.00;;;;;;5053132;28;20473;-72
2022/03/11 06:02:19;;;;;;;15.80;8.80;;;-0.90;91.30;;;;;;5052777;28;20905;-79
2022/03/11 06:04:46;;;;;;;15.90;10.13;;;-1.00;91.80;;;;;;5053236;28;20561;-83
2022/03/11 06:07:13;;;;;;;14.87;9.97;;;-1.30;92.00;;;;;;5054389;28;20450;-77
2022/03/11 06:09:42;;;;;;;18.27;9.47;;;-1.30;91.70;;;;;;5052982;28;20449;-76
2022/03/11 06:12:10;;;;;;;11.17;8.90;;;-1.30;92.10;;;;;;5052926;28;21256;-78
2022/03/11 06:14:37;;;;;;;15.83;10.87;;;-1.30;92.00;;;;;;5052682;28;20564;-77
2022/03/11 06:17:05;;;;;;;16.67;10.57;;;-1.10;92.30;;;;;;5052760;28;20532;-73
2022/03/11 06:19:32;;;;;;;21.80;11.63;;;-1.10;93.00;;;;;;5052677;28;20464;-71
2022/03/11 06:22:00;;;;;;;18.97;11.77;;;-0.90;93.60;;;;;;5052778;28;20484;-70
2022/03/11 06:24:27;;;;;;;16.00;10.80;;;-0.70;93.90;;;;;;5051280;28;20514;-75
2022/03/11 06:26:56;;;;;;;22.33;11.87;;;-0.70;95.50;;;;;;5049674;28;20464;-75
2022/03/11 06:29:23;;;;;;;17.87;11.87;;;-0.50;96.60;;;;;;5050649;28;20450;-75
2022/03/11 06:31:50;;;;;;;15.17;10.20;;;-0.30;95.60;;;;;;5051984;28;20827;-75
2022/03/11 06:34:17;;;;;;;15.70;10.67;;;-0.20;95.50;;;;;;5051929;28;20481;-73
2022/03/11 06:36:44;;;;;;;16.83;10.53;;;0.00;95.80;;;;;;5052026;28;20493;-72
2022/03/11 06:39:13;;;;;;;23.53;11.00;;;0.30;94.80;;;;;;5052197;28;20454;-76
2022/03/11 06:41:41;;;;;;;19.40;11.80;;;0.40;94.40;;;;;;5052436;28;20885;-73
2022/03/11 06:44:09;;;;;;;17.00;11.57;;;0.60;94.80;;;;;;5052534;28;20470;-75
2022/03/11 06:46:36;;;;;;;19.57;10.10;;;0.80;94.80;;;;;;5052434;28;20859;-79
2022/03/11 06:49:05;;;;;;;14.40;8.90;;;1.10;93.10;;;;;;5050262;28;20449;-75
2022/03/11 06:51:35;;;;;;;15.03;9.60;;;1.40;92.60;;;;;;5032280;28;20451;-76
2022/03/11 06:54:04;;;;;;;10.73;7.97;;;1.40;92.90;;;;;;5032141;28;20474;-75
2022/03/11 06:56:32;;;;;;;18.30;9.33;;;1.50;92.60;;;;;;5031786;28;20486;-73
2022/03/11 06:58:59;;;;;;;14.67;9.03;;;1.50;91.80;;;;;;5033112;28;20875;-78
2022/03/11 07:01:27;;;;;;;17.70;10.30;;;1.50;91.50;;;;;;5036044;28;20829;-71
2022/03/11 07:03:54;;;;;;;19.17;11.97;;;1.60;91.50;;;;;;5036694;28;20471;-79
2022/03/11 07:06:22;;;;;;;18.40;10.43;;;1.80;91.50;;;;;;5038881;28;20480;-77
2022/03/11 07:08:49;;;;;;;13.13;8.57;;;2.10;90.20;;;;;;5034807;28;20781;-70
2022/03/11 07:11:17;;;;;;;13.50;9.57;;;2.30;89.40;;;;;;5032125;28;20463;-72
2022/03/11 07:13:45;;;;;;;13.30;8.50;;;2.40;88.10;;;;;;5031935;28;20474;-74
2022/03/11 07:16:13;;;;;;;11.20;8.30;;;2.60;85.90;;;;;;5031930;28;20845;-74
2022/03/11 07:18:41;;;;;;;12.60;7.67;;;2.70;83.90;;;;;;5032010;28;20462;-74
2022/03/11 07:21:09;;;;;;;9.53;7.43;;;2.80;82.90;;;;;;5031698;28;20773;-74
2022/03/11 07:23:36;;;;;;;16.80;8.03;;;2.80;81.70;;;;;;5031474;28;20479;-76
2022/03/11 07:26:03;;;;;;;13.87;9.07;;;2.80;79.30;;;;;;5031267;28;20487;-77
2022/03/11 07:28:30;;;;;;;12.43;8.97;;;2.70;78.80;;;;;;5031723;28;20793;-76
2022/03/11 07:30:57;;;;;;;14.53;9.73;;;2.70;79.30;;;;;;5031092;28;20459;-74
2022/03/11 07:33:25;;;;;;;14.40;9.40;;;2.70;78.70;;;;;;5031055;28;20463;-73
2022/03/11 07:35:53;;;;;;;10.90;8.60;;;2.50;80.40;;;;;;5036467;28;20449;-77
2022/03/11 07:38:20;;;;;;;12.73;7.87;;;2.60;81.30;;;;;;5051359;28;20454;-75
2022/03/11 07:40:47;;;;;;;10.27;7.20;;;2.70;81.70;;;;;;5051376;28;20453;-76
2022/03/11 07:43:14;;;;;;;9.47;6.80;;;2.90;79.80;;;;;;5051437;28;20468;-75
2022/03/11 07:45:42;;;;;;;9.97;6.73;;;3.10;76.60;;;;;;5051391;28;20517;-74
2022/03/11 07:48:09;;;;;;;15.60;7.77;;;3.10;77.20;;;;;;5051163;28;20785;-74
2022/03/11 07:50:36;;;;;;;10.67;6.73;;;3.30;77.20;;;;;;5039889;28;20458;-76
2022/03/11 07:53:04;;;;;;;11.23;7.60;;;3.70;78.10;;;;;;5031105;28;20537;-76
2022/03/11 07:55:32;;;;;;;9.40;6.83;;;3.70;75.20;;;;;;5031019;28;20471;-75
2022/03/11 07:57:59;;;;;;;9.80;7.20;;;3.90;73.70;;;;;;5031125;28;20509;-75
2022/03/11 08:00:27;;;;;;;8.80;6.67;;;3.90;73.00;;;;;;5031168;28;20467;-72
2022/03/11 08:02:54;;;;;;;11.60;6.97;;;3.70;73.60;;;;;;5030791;28;20985;-78
2022/03/11 08:05:21;;;;;;;10.87;7.70;;;3.80;71.30;;;;;;5031261;28;20479;-77
2022/03/11 08:07:49;;;;;;;10.00;6.70;;;3.70;71.80;;;;;;5030851;28;20451;-75
2022/03/11 08:10:18;;;;;;;12.03;7.60;;;3.90;71.00;;;;;;5031096;28;20474;-75
2022/03/11 08:12:46;;;;;;;8.13;6.23;;;4.00;70.00;;;;;;5030774;28;20946;-74
2022/03/11 08:15:13;;;;;;;10.37;7.37;;;4.00;70.80;;;;;;5030588;28;20479;-75
2022/03/11 08:17:41;;;;;;;12.23;8.47;;;4.10;70.60;;;;;;5050016;28;20494;-76
2022/03/11 08:20:09;;;;;;;9.60;6.90;;;4.30;68.60;;;;;;5050630;28;20507;-75
2022/03/11 08:22:36;;;;;;;11.47;7.83;;;4.60;68.90;;;;;;5050499;28;21019;-76
2022/03/11 08:25:04;;;;;;;9.80;7.57;;;4.60;66.50;;;;;;5049890;28;20486;-75
2022/03/11 08:27:34;;;;;;;8.87;6.67;;;4.70;64.80;;;;;;5050225;28;20446;-73
2022/03/11 08:30:01;;;;;;;7.80;5.43;;;4.60;64.70;;;;;;5050269;28;20533;-72
2022/03/11 08:32:28;;;;;;;10.40;6.83;;;4.30;61.80;;;;;;5050114;28;20462;-72
2022/03/11 08:34:55;;;;;;;11.57;6.30;;;3.80;63.40;;;;;;5050331;28;20468;-76
2022/03/11 08:37:22;;;;;;;10.93;7.57;;;3.60;64.40;;;;;;5050320;28;20497;-75
2022/03/11 08:39:49;;;;;;;11.77;7.03;;;3.50;65.10;;;;;;5050289;28;20450;-74
2022/03/11 08:42:17;;;;;;;12.00;7.20;;;3.50;67.30;;;;;;5050100;28;20458;-76
2022/03/11 08:44:46;;;;;;;9.20;6.70;;;3.60;65.80;;;;;;5050053;28;20473;-76
2022/03/11 08:47:13;;;;;;;10.10;7.80;;;3.80;65.60;;;;;;5049982;28;20946;-72
2022/03/11 08:49:40;;;;;;;10.23;7.20;;;4.00;63.50;;;;;;5046251;28;20463;-74
2022/03/11 08:52:08;;;;;;;9.03;6.83;;;3.90;63.50;;;;;;5030179;28;20454;-75
2022/03/11 08:54:35;;;;;;;12.27;8.30;;;4.20;63.40;;;;;;5030142;28;20479;-75
2022/03/11 08:57:03;;;;;;;10.50;7.77;;;4.50;61.80;;;;;;5030067;28;20490;-73
2022/03/11 08:59:31;;;;;;;13.83;7.10;;;4.50;61.40;;;;;;5030129;28;20463;-72
2022/03/11 09:02:01;;;;;;;10.40;6.90;;;4.50;60.30;;;;;;5029840;28;20461;-72
2022/03/11 09:04:28;;;;;;;13.97;8.13;;;4.60;61.20;;;;;;5030051;28;20578;-73
2022/03/11 09:06:55;;;;;;;10.00;7.40;;;4.50;59.20;;;;;;5029934;28;20841;-72
2022/03/11 09:09:22;;;;;;;12.23;7.97;;;4.30;60.50;;;;;;5029809;28;20451;-72
2022/03/11 09:11:49;;;;;;;10.27;7.40;;;4.60;62.10;;;;;;5029775;28;20466;-68
2022/03/11 09:14:18;;;;;;;8.90;6.40;;;4.90;61.00;;;;;;5029793;28;20837;-69
2022/03/11 09:16:45;;;;;;;12.07;7.40;;;4.80;58.40;;;;;;5029931;28;20457;-67
2022/03/11 09:19:14;;;;;;;9.87;7.60;;;4.30;59.80;;;;;;5029898;28;20930;-69
2022/03/11 09:21:41;;;;;;;10.60;7.47;;;4.00;59.10;;;;;;5029692;28;20537;-69
2022/03/11 09:24:09;;;;;;;10.60;7.90;;;3.70;59.90;;;;;;5029015;28;21022;-68
2022/03/11 09:26:36;;;;;;;12.47;7.33;;;3.50;61.20;;;;;;5029605;28;20451;-68
2022/03/11 09:29:03;;;;;;;12.50;8.13;;;3.50;62.90;;;;;;5029211;28;20457;-68
2022/03/11 09:31:30;;;;;;;12.43;8.43;;;3.70;63.90;;;;;;5029107;28;20519;-68
2022/03/11 09:33:57;;;;;;;9.70;7.77;;;4.20;64.40;;;;;;5029542;28;20840;-69
2022/03/11 09:36:26;;;;;;;9.83;7.60;;;4.40;60.00;;;;;;5029168;28;20809;-66
2022/03/11 09:38:53;;;;;;;16.20;7.73;;;4.30;59.40;;;;;;5029176;28;20491;-69
2022/03/11 09:41:21;;;;;;;9.87;7.33;;;4.20;59.20;;;;;;5029273;28;20455;-67
2022/03/11 09:43:48;;;;;;;11.00;7.60;;;4.10;59.30;;;;;;5029363;28;20475;-68
2022/03/11 09:46:16;;;;;;;11.80;6.63;;;4.00;59.40;;;;;;5029585;28;20454;-67
2022/03/11 09:48:43;;;;;;;11.70;7.77;;;4.10;59.90;;;;;;5029281;28;20458;-69
2022/03/11 09:51:11;;;;;;;24.03;11.67;;;4.30;59.40;;;;;;5029089;28;20458;-66
2022/03/11 09:53:42;;;;;;;12.60;9.40;;;4.10;57.70;;;;;;5029199;28;20461;-67
2022/03/11 09:56:09;;;;;;;11.30;7.20;;;4.00;57.80;;;;;;5029411;28;20450;-68
2022/03/11 09:58:36;;;;;;;12.57;9.33;;;4.20;60.10;;;;;;5029063;28;20486;-68
2022/03/11 10:01:05;;;;;;;11.70;8.00;;;4.70;59.30;;;;;;5029179;28;20457;-69
2022/03/11 10:03:32;;;;;;;15.43;8.60;;;4.80;59.20;;;;;;5028938;28;20483;-69
2022/03/11 10:06:00;;;;;;;14.80;8.27;;;4.90;59.60;;;;;;5029022;28;20447;-69
2022/03/11 10:08:34;;;;;;;13.83;8.20;;;5.10;59.10;;;;;;5029131;28;20455;-68
2022/03/11 10:11:24;;;;;;;11.17;8.03;;;5.30;57.30;;;;;;5028824;28;20480;-68
2022/03/11 10:13:52;;;;;;;10.57;7.97;;;5.70;56.60;;;;;;5028587;28;20564;-68
2022/03/11 10:16:21;;;;;;;13.97;7.47;;;5.70;56.50;;;;;;5028957;28;20556;-68
2022/03/11 10:18:56;;;;;;;9.17;6.40;;;5.90;56.70;;;;;;5028800;28;20490;-69
2022/03/11 10:21:32;;;;;;;8.30;6.03;;;6.00;53.80;;;;;;5028860;28;20457;-67
2022/03/11 10:24:01;;;;;;;11.30;6.60;;;6.00;53.20;;;;;;5028291;28;20481;-68
2022/03/11 10:26:37;;;;;;;9.20;6.43;;;5.90;54.70;;;;;;5029149;28;21094;-68
2022/03/11 10:29:07;;;;;;;9.50;6.70;;;5.80;53.80;;;;;;5029006;28;20533;-68
2022/03/11 10:31:35;;;;;;;13.27;7.67;;;5.70;54.30;;;;;;5028816;28;20454;-68
2022/03/11 10:34:13;;;;;;;11.23;6.87;;;5.80;55.00;;;;;;5028977;28;20470;-68
2022/03/11 10:36:47;;;;;;;9.87;6.93;;;5.80;54.00;;;;;;5028991;28;20439;-69
2022/03/11 10:39:15;;;;;;;9.10;6.40;;;5.70;53.40;;;;;;5028507;28;20572;-67
2022/03/11 10:41:43;;;;;;;8.93;6.00;;;5.70;53.20;;;;;;5028702;28;20552;-64
2022/03/11 10:44:12;;;;;;;8.93;6.43;;;5.70;52.50;;;;;;5029778;28;20827;-68
2022/03/11 10:46:40;;;;;;;12.23;7.57;;;5.60;51.40;;;;;;5032759;28;20466;-68
2022/03/11 10:49:07;;;;;;;9.90;7.03;;;5.30;51.50;;;;;;5032505;28;20446;-69
2022/03/11 10:51:38;;;;;;;8.13;6.07;;;5.00;52.50;;;;;;5032642;28;20505;-68
2022/03/11 10:54:07;;;;;;;10.20;6.30;;;5.10;52.70;;;;;;5032101;28;20471;-68
2022/03/11 10:56:36;;;;;;;8.93;5.73;;;5.10;51.70;;;;;;5032159;28;20806;-68
2022/03/11 10:59:14;;;;;;;10.50;6.17;;;5.00;51.00;;;;;;5032245;28;20493;-68
2022/03/11 11:01:43;;;;;;;7.90;6.00;;;5.20;51.00;;;;;;5032276;28;20455;-67
2022/03/11 11:04:12;;;;;;;10.13;7.17;;;5.10;51.50;;;;;;5032097;28;20474;-68
2022/03/11 11:06:39;;;;;;;9.17;6.23;;;4.80;50.70;;;;;;5032036;28;20450;-69
2022/03/11 11:09:08;;;;;;;8.80;6.40;;;4.70;50.30;;;;;;5032052;28;20449;-68
2022/03/11 11:11:37;;;;;;;9.33;6.00;;;4.50;51.30;;;;;;5031977;28;20483;-68
2022/03/11 11:14:07;;;;;;;12.50;8.57;;;4.20;51.00;;;;;;5011586;28;20470;-68
2022/03/11 11:16:39;;;;;;;10.60;7.03;;;4.10;52.00;;;;;;5028618;28;20486;-68
2022/03/11 11:19:08;;;;;;;10.90;6.90;;;4.20;53.00;;;;;;5030258;28;20577;-67
2022/03/11 11:21:37;;;;;;;9.20;6.53;;;4.40;54.20;;;;;;5031571;28;20556;-67
2022/03/11 11:24:10;;;;;;;10.53;7.20;;;4.50;53.40;;;;;;5031798;28;20486;-68
2022/03/11 11:26:41;;;;;;;12.30;7.30;;;4.50;53.40;;;;;;5031803;28;20463;-67
2022/03/11 11:29:10;;;;;;;7.63;5.60;;;4.40;54.00;;;;;;5031709;28;20506;-67
2022/03/11 11:31:37;;;;;;;10.70;7.40;;;4.40;51.60;;;;;;5031833;28;20525;-67
2022/03/11 11:34:22;;;;;;;13.83;8.43;;;4.40;51.70;;;;;;5031600;28;20498;-67
2022/03/11 11:36:49;;;;;;;10.63;7.60;;;4.20;54.30;;;;;;5031800;28;20482;-68
2022/03/11 11:39:16;;;;;;;11.50;7.03;;;4.20;55.30;;;;;;5031605;28;20486;-67
2022/03/11 11:41:52;;;;;;;16.20;7.80;;;3.80;55.10;;;;;;5031588;28;20458;-68
2022/03/11 11:44:32;;;;;;;12.30;8.70;;;3.30;55.60;;;;;;5031446;28;20767;-67
2022/03/11 11:47:15;;;;;;;11.63;8.10;;;2.60;56.30;;;;;;5031464;28;20754;-68
2022/03/11 11:49:44;;;;;;;11.47;7.33;;;2.40;57.80;;;;;;5031105;28;20808;-67
2022/03/11 11:52:12;;;;;;;19.70;9.50;;;2.40;59.20;;;;;;5014051;28;20458;-68
2022/03/11 11:54:44;;;;;;;12.70;8.00;;;2.40;59.40;;;;;;5030790;28;20533;-69
2022/03/11 11:57:22;;;;;;;13.60;8.30;;;2.40;59.60;;;;;;5031344;28;21029;-68
2022/03/11 11:59:51;;;;;;;10.77;8.20;;;2.40;61.00;;;;;;5031292;28;20474;-67
2022/03/11 12:02:32;;;;;;;14.23;8.60;;;2.80;62.10;;;;;;5031371;28;20462;-68
2022/03/11 12:05:00;;;;;;;14.90;10.53;;;3.00;61.20;;;;;;5031014;28;20497;-68
2022/03/11 12:07:47;;;;;;;16.10;8.33;;;3.00;60.60;;;;;;5030972;28;20482;-67
2022/03/11 12:10:25;;;;;;;14.47;8.20;;;2.90;61.70;;;;;;5030938;28;20450;-68
2022/03/11 12:13:02;;;;;;;12.40;9.00;;;2.40;66.40;;;;;;5030919;28;20457;-67
2022/03/11 12:15:43;;;;;;;12.47;8.80;;;2.40;69.60;;;;;;5030853;28;20833;-67
2022/03/11 12:18:36;;;;;;;12.00;7.83;;;2.40;72.20;;;;;;5030820;28;20577;-71
2022/03/11 12:21:05;;;;;;;18.63;8.73;;;2.40;72.90;;;;;;5030729;28;20558;-68
2022/03/11 12:23:36;;;;;;;11.90;10.20;;;2.40;74.40;;;;;;5027872;28;20474;-69
2022/03/11 12:26:09;;;;;;;9.97;8.23;;;2.30;72.80;;;;;;5030409;28;20494;-68
2022/03/11 12:28:39;;;;;;;13.03;9.07;;;2.60;74.70;;;;;;5030546;28;20455;-68
2022/03/11 12:31:09;;;;;;;13.47;9.50;;;3.10;76.40;;;;;;5030574;28;20459;-68
2022/03/11 12:33:38;;;;;;;12.10;7.33;;;3.30;72.50;;;;;;5029715;28;20969;-68
2022/03/11 12:36:08;;;;;;;12.20;8.20;;;3.40;72.50;;;;;;5028959;28;20482;-68
2022/03/11 12:38:38;;;;;;;15.47;9.90;;;3.70;72.00;;;;;;5028817;28;20486;-69
2022/03/11 12:41:07;;;;;;;11.50;8.07;;;4.00;69.40;;;;;;5030473;28;20525;-68
2022/03/11 12:43:35;;;;;;;13.50;9.37;;;4.30;66.10;;;;;;5030517;28;20512;-67
2022/03/11 12:46:05;;;;;;;14.57;9.77;;;4.90;63.50;;;;;;5030439;28;20459;-67
2022/03/11 12:48:36;;;;;;;13.03;8.60;;;4.90;60.70;;;;;;5030361;28;20451;-67